createdAt,value
2019-03-12T00:04:47.540Z,0.11
2019-03-12T00:09:56.926Z,0.17
2019-03-12T00:15:05.974Z,0.20
2019-03-12T00:20:15.131Z,1.89
2019-03-12T00:25:24.164Z,3.20
2019-03-12T00:30:33.282Z,3.90
2019-03-12T00:35:42.331Z,3.83
2019-03-12T00:40:51.677Z,4.40
2019-03-12T00:46:00.757Z,3.99
2019-03-12T00:51:09.879Z,2.65
2019-03-12T00:56:18.928Z,2.96
2019-03-12T01:01:28.028Z,2.53
2019-03-12T01:06:37.087Z,3.40
2019-03-12T01:11:46.275Z,3.64
2019-03-12T01:16:55.281Z,3.87
2019-03-12T01:22:04.487Z,4.22
2019-03-12T01:27:13.511Z,3.09
2019-03-12T01:32:22.595Z,3.01
2019-03-12T01:37:31.607Z,2.69
2019-03-12T01:42:40.894Z,2.17
2019-03-12T01:47:49.926Z,2.88
2019-03-12T01:52:59.079Z,2.68
2019-03-12T01:58:08.103Z,2.82
2019-03-12T02:03:17.246Z,2.65
2019-03-12T02:08:26.295Z,2.92
2019-03-12T02:13:35.422Z,2.12
2019-03-12T02:18:44.450Z,2.78
2019-03-12T02:23:53.568Z,1.83
2019-03-12T02:29:02.579Z,2.29
2019-03-12T02:34:11.886Z,2.00
2019-03-12T02:39:20.944Z,1.75
2019-03-12T02:44:30.063Z,1.51
2019-03-12T02:49:39.111Z,1.69
2019-03-12T02:54:48.240Z,1.81
2019-03-12T02:59:57.262Z,1.92
2019-03-12T03:05:06.353Z,2.20
2019-03-12T03:10:15.377Z,1.59
2019-03-12T03:15:24.466Z,1.81
2019-03-12T03:20:33.521Z,2.01
2019-03-12T03:25:42.659Z,1.79
2019-03-12T03:30:51.876Z,1.81
2019-03-12T03:36:00.950Z,1.81
2019-03-12T03:41:09.982Z,1.43
2019-03-12T03:46:19.067Z,1.40
2019-03-12T03:51:28.123Z,1.98
2019-03-12T03:56:37.285Z,1.54
2019-03-12T04:01:46.353Z,1.56
2019-03-12T04:06:55.455Z,1.86
2019-03-12T04:12:04.523Z,1.25
2019-03-12T04:17:14.276Z,1.69
2019-03-12T04:22:23.344Z,1.54
2019-03-12T04:27:32.539Z,2.12
2019-03-12T04:32:41.629Z,3.05
2019-03-12T04:37:50.742Z,2.11
2019-03-12T04:42:59.751Z,1.91
2019-03-12T04:48:08.918Z,1.29
2019-03-12T04:53:17.976Z,1.51
2019-03-12T04:58:27.073Z,1.25
2019-03-12T05:03:36.146Z,1.67
2019-03-12T05:08:45.263Z,1.39
2019-03-12T05:13:54.321Z,1.75
2019-03-12T05:19:03.439Z,1.86
2019-03-12T05:24:12.467Z,1.64
2019-03-12T05:29:21.614Z,1.48
2019-03-12T05:34:30.651Z,1.76
2019-03-12T05:39:39.767Z,1.75
2019-03-12T05:44:48.846Z,1.98
2019-03-12T05:49:57.966Z,2.00
2019-03-12T05:55:07.243Z,2.52
2019-03-12T06:00:16.557Z,2.92
2019-03-12T06:05:25.581Z,3.15
2019-03-12T06:10:34.666Z,3.56
2019-03-12T06:15:43.692Z,3.89
2019-03-12T06:20:52.774Z,3.77
2019-03-12T06:26:01.847Z,3.27
2019-03-12T06:31:11.027Z,3.49
2019-03-12T06:36:20.111Z,2.60
2019-03-12T06:41:29.236Z,2.64
2019-03-12T06:46:38.246Z,3.00
2019-03-12T06:51:47.338Z,3.45
2019-03-12T06:56:56.346Z,2.66
2019-03-12T07:02:05.503Z,2.54
2019-03-12T07:07:16.951Z,2.73
2019-03-12T07:12:23.346Z,3.65
2019-03-12T07:17:32.528Z,3.24
2019-03-12T07:22:41.808Z,4.66
2019-03-12T07:27:50.878Z,4.18
2019-03-12T07:33:00.211Z,4.24
2019-03-12T07:38:09.228Z,4.00
2019-03-12T07:43:18.502Z,4.13
2019-03-12T07:48:27.529Z,3.85
2019-03-12T07:53:36.690Z,2.90
2019-03-12T07:58:45.736Z,2.53
2019-03-12T08:03:54.815Z,1.77
2019-03-12T08:09:03.878Z,1.51
2019-03-12T08:14:13.003Z,1.36
2019-03-12T08:19:22.040Z,1.55
2019-03-12T08:24:31.203Z,1.68
2019-03-12T08:29:40.296Z,1.66
2019-03-12T08:34:49.402Z,1.95
2019-03-12T08:40:11.234Z,2.29
2019-03-12T08:45:00.459Z,2.36
2019-03-12T08:50:09.326Z,3.37
2019-03-12T08:55:18.711Z,3.01
2019-03-12T09:00:27.779Z,3.79
2019-03-12T09:05:36.961Z,3.10
2019-03-12T09:10:46.051Z,2.37
2019-03-12T09:15:55.168Z,2.47
2019-03-12T09:21:04.210Z,1.43
2019-03-12T09:26:13.346Z,2.07
2019-03-12T09:31:22.413Z,1.77
2019-03-12T09:36:31.544Z,2.58
2019-03-12T09:41:40.623Z,2.67
2019-03-12T09:46:49.755Z,3.03
2019-03-12T09:51:58.834Z,2.66
2019-03-12T09:57:08.018Z,2.83
2019-03-12T10:02:17.082Z,2.27
2019-03-12T10:07:26.244Z,2.44
2019-03-12T10:12:35.223Z,2.39
2019-03-12T10:17:44.312Z,2.28
2019-03-12T10:22:54.378Z,2.03
2019-03-12T10:27:53.495Z,1.84
2019-03-12T10:33:02.546Z,1.99
2019-03-12T10:38:11.730Z,2.39
2019-03-12T10:43:20.794Z,1.92
2019-03-12T10:48:29.942Z,2.04
2019-03-12T10:53:41.591Z,2.27
2019-03-12T10:58:40.720Z,2.13
2019-03-12T11:03:49.787Z,2.65
2019-03-12T11:08:58.882Z,3.68
2019-03-12T11:14:07.886Z,3.77
2019-03-12T11:19:17.034Z,5.07
2019-03-12T11:24:26.089Z,5.69
2019-03-12T11:29:35.298Z,6.53
2019-03-12T11:34:44.306Z,6.47
2019-03-12T11:39:53.426Z,6.16
2019-03-12T11:45:02.747Z,4.03
2019-03-12T11:50:11.490Z,4.01
2019-03-12T11:55:20.690Z,5.29
2019-03-12T12:00:29.857Z,5.33
2019-03-12T12:05:38.859Z,5.33
2019-03-12T12:10:48.021Z,6.00
2019-03-12T12:15:57.030Z,5.81
2019-03-12T12:21:06.142Z,5.12
2019-03-12T12:26:15.166Z,5.57
2019-03-12T12:31:24.322Z,6.13
2019-03-12T12:36:33.343Z,7.38
2019-03-12T12:41:42.510Z,4.94
2019-03-12T12:46:51.626Z,5.20
2019-03-12T12:52:00.712Z,4.82
2019-03-12T12:57:09.767Z,4.58
2019-03-12T13:02:18.933Z,4.65
2019-03-12T13:07:27.988Z,3.80
2019-03-12T13:12:37.114Z,3.48
2019-03-12T13:17:46.603Z,4.01
2019-03-12T13:22:55.682Z,3.19
2019-03-12T13:28:04.695Z,3.09
2019-03-12T13:33:13.854Z,3.72
2019-03-12T13:38:23.027Z,3.33
2019-03-12T13:43:32.013Z,4.76
2019-03-12T13:48:41.031Z,2.98
2019-03-12T13:53:50.150Z,3.16
2019-03-12T13:58:59.190Z,2.61
2019-03-12T14:04:10.496Z,2.81
2019-03-12T14:09:16.860Z,2.51
2019-03-12T14:14:25.985Z,2.25
2019-03-12T14:19:35.075Z,2.68
2019-03-12T14:24:44.293Z,2.50
2019-03-12T14:29:53.356Z,2.62
2019-03-12T14:35:02.567Z,1.93
2019-03-12T14:40:11.610Z,2.01
2019-03-12T14:45:20.693Z,1.55
2019-03-12T14:50:29.769Z,1.60
2019-03-12T14:55:38.911Z,1.34
2019-03-12T15:00:47.966Z,0.78
2019-03-12T15:05:57.083Z,0.47
2019-03-12T15:11:06.150Z,0.18
2019-03-12T15:16:15.278Z,0.18
2019-03-12T15:21:24.348Z,0.12
2019-03-12T15:26:33.463Z,0.12
2019-03-12T15:31:42.621Z,0.07
2019-03-12T15:36:51.802Z,0.22
2019-03-12T15:42:00.823Z,0.13
2019-03-12T15:47:09.999Z,0.18
2019-03-12T15:52:19.022Z,0.07
2019-03-12T15:57:32.417Z,0.09
2019-03-12T16:02:30.460Z,0.35
2019-03-12T16:07:39.586Z,0.18
2019-03-12T16:12:48.663Z,0.40
2019-03-12T16:17:57.854Z,1.01
2019-03-12T16:23:06.935Z,3.06
2019-03-12T16:28:16.126Z,3.49
2019-03-12T16:33:25.150Z,2.87
2019-03-12T16:38:34.298Z,3.86
2019-03-12T16:43:43.378Z,2.91
2019-03-12T16:48:52.705Z,3.98
2019-03-12T16:54:04.998Z,3.29
2019-03-12T16:59:10.402Z,3.04
2019-03-12T17:04:19.429Z,3.19
2019-03-12T17:09:28.604Z,2.24
2019-03-12T17:14:38.979Z,2.67
2019-03-12T17:19:46.342Z,3.74
2019-03-12T17:24:55.521Z,2.35
2019-03-12T17:30:04.582Z,2.34
2019-03-12T17:35:13.622Z,2.28
2019-03-12T17:40:22.779Z,1.86
2019-03-12T17:45:31.810Z,2.44
2019-03-12T17:50:40.892Z,2.77
2019-03-12T17:55:50.004Z,3.20
2019-03-12T18:01:02.368Z,1.99
2019-03-12T18:06:03.361Z,2.47
2019-03-12T18:11:02.654Z,2.61
2019-03-12T18:16:11.690Z,2.91
2019-03-12T18:21:21.234Z,1.77
2019-03-12T18:26:30.290Z,2.24
2019-03-12T18:31:39.420Z,2.57
2019-03-12T18:36:48.485Z,3.24
2019-03-12T18:41:57.714Z,3.09
2019-03-12T18:47:06.870Z,3.79
2019-03-12T18:52:16.102Z,4.80
2019-03-12T18:57:25.160Z,3.65
2019-03-12T19:02:34.273Z,4.30
2019-03-12T19:07:43.323Z,4.45
2019-03-12T19:12:52.434Z,4.79
2019-03-12T19:18:01.498Z,4.59
2019-03-12T19:23:10.729Z,6.18
2019-03-12T19:28:19.762Z,4.94
2019-03-12T19:33:28.896Z,5.43
2019-03-12T19:38:37.922Z,5.46
2019-03-12T19:43:47.038Z,6.28
2019-03-12T19:48:56.075Z,4.92
2019-03-12T19:54:05.162Z,4.34
2019-03-12T19:59:14.226Z,3.83
2019-03-12T20:04:23.994Z,3.91
2019-03-12T20:09:33.006Z,4.43
2019-03-12T20:14:42.206Z,3.13
2019-03-12T20:19:53.855Z,1.85
2019-03-12T20:25:00.055Z,1.71
2019-03-12T20:30:09.159Z,1.59
2019-03-12T20:35:18.280Z,1.59
2019-03-12T20:40:27.351Z,1.85
2019-03-12T20:45:36.493Z,2.15
2019-03-12T20:50:45.563Z,2.27
2019-03-12T20:55:54.685Z,2.47
2019-03-12T21:01:03.758Z,2.14
2019-03-12T21:06:12.866Z,2.08
2019-03-12T21:11:21.958Z,1.04
2019-03-12T21:16:31.058Z,1.11
2019-03-12T21:21:40.120Z,1.97
2019-03-12T21:26:49.305Z,1.66
2019-03-12T21:31:58.382Z,2.06
2019-03-12T21:37:07.503Z,2.07
2019-03-12T21:42:16.571Z,1.63
2019-03-12T21:47:26.135Z,2.32
2019-03-12T21:52:35.218Z,1.24
2019-03-12T21:57:44.313Z,1.66
2019-03-12T22:02:53.338Z,1.34
2019-03-12T22:08:02.430Z,1.56
2019-03-12T22:13:11.655Z,1.75
2019-03-12T22:18:20.799Z,1.92
2019-03-12T22:23:29.858Z,2.21
2019-03-12T22:28:38.983Z,2.28
2019-03-12T22:33:48.039Z,2.28
2019-03-12T22:38:57.221Z,2.77
2019-03-12T22:44:06.311Z,1.94
2019-03-12T22:49:15.421Z,1.71
2019-03-12T22:54:24.498Z,1.36
2019-03-12T22:59:33.824Z,1.95
2019-03-12T23:04:42.914Z,2.25
2019-03-12T23:09:52.022Z,1.92
2019-03-12T23:15:01.115Z,1.76
2019-03-12T23:20:10.261Z,1.83
2019-03-12T23:25:19.306Z,1.82
2019-03-12T23:30:28.864Z,2.02
2019-03-12T23:35:37.073Z,2.34
2019-03-12T23:40:46.211Z,2.17
2019-03-12T23:45:55.222Z,2.29
2019-03-12T23:51:04.358Z,2.70
2019-03-12T23:56:13.442Z,2.16
